sensor_id;sensor_type;location;lat;lon;timestamp;temperature;humidity
9509;DHT22;4792;50.088;8.122;2022-12-29T00:01:08;8.50;99.90
9509;DHT22;4792;50.088;8.122;2022-12-29T00:03:36;8.50;99.90
9509;DHT22;4792;50.088;8.122;2022-12-29T00:06:06;8.50;99.90
9509;DHT22;4792;50.088;8.122;2022-12-29T00:11:21;8.60;99.90
9509;DHT22;4792;50.088;8.122;2022-12-29T00:13:49;8.70;99.90
9509;DHT22;4792;50.088;8.122;2022-12-29T00:16:36;8.70;99.90
9509;DHT22;4792;50.088;8.122;2022-12-29T00:19:05;8.80;99.90
9509;DHT22;4792;50.088;8.122;2022-12-29T00:21:34;8.80;99.90
9509;DHT22;4792;50.088;8.122;2022-12-29T00:24:21;8.80;99.90
9509;DHT22;4792;50.088;8.122;2022-12-29T00:27:12;8.80;99.90
9509;DHT22;4792;50.088;8.122;2022-12-29T00:29:59;8.80;99.90
9509;DHT22;4792;50.088;8.122;2022-12-29T00:32:44;8.80;99.90
9509;DHT22;4792;50.088;8.122;2022-12-29T00:35:33;8.80;99.90
9509;DHT22;4792;50.088;8.122;2022-12-29T00:38:06;8.80;99.90
9509;DHT22;4792;50.088;8.122;2022-12-29T00:40:52;8.80;99.90
9509;DHT22;4792;50.088;8.122;2022-12-29T00:43:38;8.70;99.90
9509;DHT22;4792;50.088;8.122;2022-12-29T00:46:24;8.70;99.90
9509;DHT22;4792;50.088;8.122;2022-12-29T00:48:52;8.70;99.90
9509;DHT22;4792;50.088;8.122;2022-12-29T00:51:37;8.70;99.90
9509;DHT22;4792;50.088;8.122;2022-12-29T00:54:07;8.60;99.90
9509;DHT22;4792;50.088;8.122;2022-12-29T00:56:35;8.70;99.90
9509;DHT22;4792;50.088;8.122;2022-12-29T00:59:04;8.60;99.90
9509;DHT22;4792;50.088;8.122;2022-12-29T01:01:33;8.60;99.90
9509;DHT22;4792;50.088;8.122;2022-12-29T01:04:02;8.60;99.90
9509;DHT22;4792;50.088;8.122;2022-12-29T01:06:30;8.60;99.90
9509;DHT22;4792;50.088;8.122;2022-12-29T01:08:59;8.50;99.90
9509;DHT22;4792;50.088;8.122;2022-12-29T01:11:46;8.60;99.90
9509;DHT22;4792;50.088;8.122;2022-12-29T01:14:15;8.50;99.90
9509;DHT22;4792;50.088;8.122;2022-12-29T01:16:43;8.60;99.90
9509;DHT22;4792;50.088;8.122;2022-12-29T01:19:12;8.50;99.90
9509;DHT22;4792;50.088;8.122;2022-12-29T01:21:41;8.50;99.90
9509;DHT22;4792;50.088;8.122;2022-12-29T01:24:09;8.50;99.90
9509;DHT22;4792;50.088;8.122;2022-12-29T01:26:37;8.50;99.90
9509;DHT22;4792;50.088;8.122;2022-12-29T01:29:07;8.40;99.90
9509;DHT22;4792;50.088;8.122;2022-12-29T01:31:35;8.40;99.90
9509;DHT22;4792;50.088;8.122;2022-12-29T01:34:04;8.40;99.90
9509;DHT22;4792;50.088;8.122;2022-12-29T01:36:33;8.40;99.90
9509;DHT22;4792;50.088;8.122;2022-12-29T01:39:01;8.30;99.90
9509;DHT22;4792;50.088;8.122;2022-12-29T01:41:29;8.40;99.90
9509;DHT22;4792;50.088;8.122;2022-12-29T01:43:59;8.30;99.90
9509;DHT22;4792;50.088;8.122;2022-12-29T01:46:31;8.30;99.90
9509;DHT22;4792;50.088;8.122;2022-12-29T01:49:05;8.40;99.90
9509;DHT22;4792;50.088;8.122;2022-12-29T01:51:39;8.30;99.90
9509;DHT22;4792;50.088;8.122;2022-12-29T01:54:11;8.40;99.90
9509;DHT22;4792;50.088;8.122;2022-12-29T01:56:40;8.30;99.90
9509;DHT22;4792;50.088;8.122;2022-12-29T01:59:12;8.40;99.90
9509;DHT22;4792;50.088;8.122;2022-12-29T02:01:45;8.40;99.90
9509;DHT22;4792;50.088;8.122;2022-12-29T02:04:14;8.40;99.90
9509;DHT22;4792;50.088;8.122;2022-12-29T02:06:47;8.40;99.90
9509;DHT22;4792;50.088;8.122;2022-12-29T02:09:16;8.30;99.90
9509;DHT22;4792;50.088;8.122;2022-12-29T02:11:44;8.40;99.90
9509;DHT22;4792;50.088;8.122;2022-12-29T02:14:13;8.30;99.90
9509;DHT22;4792;50.088;8.122;2022-12-29T02:16:58;8.30;99.90
9509;DHT22;4792;50.088;8.122;2022-12-29T02:20:22;8.40;99.90
9509;DHT22;4792;50.088;8.122;2022-12-29T02:23:10;8.40;99.90
9509;DHT22;4792;50.088;8.122;2022-12-29T02:26:05;8.40;99.90
9509;DHT22;4792;50.088;8.122;2022-12-29T02:29:01;8.30;99.90
9509;DHT22;4792;50.088;8.122;2022-12-29T02:31:41;8.40;99.90
9509;DHT22;4792;50.088;8.122;2022-12-29T02:34:21;8.40;99.90
9509;DHT22;4792;50.088;8.122;2022-12-29T02:37:00;8.40;99.90
9509;DHT22;4792;50.088;8.122;2022-12-29T02:39:34;8.40;99.90
9509;DHT22;4792;50.088;8.122;2022-12-29T02:42:10;8.40;99.90
9509;DHT22;4792;50.088;8.122;2022-12-29T02:44:51;8.30;99.90
9509;DHT22;4792;50.088;8.122;2022-12-29T02:47:26;8.30;99.90
9509;DHT22;4792;50.088;8.122;2022-12-29T02:50:01;8.40;99.90
9509;DHT22;4792;50.088;8.122;2022-12-29T02:52:36;8.30;99.90
9509;DHT22;4792;50.088;8.122;2022-12-29T02:55:07;8.40;99.90
9509;DHT22;4792;50.088;8.122;2022-12-29T02:57:35;8.40;99.90
9509;DHT22;4792;50.088;8.122;2022-12-29T03:00:07;8.40;99.90
9509;DHT22;4792;50.088;8.122;2022-12-29T03:03:14;8.40;99.90
9509;DHT22;4792;50.088;8.122;2022-12-29T03:06:04;8.40;99.90
9509;DHT22;4792;50.088;8.122;2022-12-29T03:08:39;8.50;99.90
9509;DHT22;4792;50.088;8.122;2022-12-29T03:11:12;8.40;99.90
9509;DHT22;4792;50.088;8.122;2022-12-29T03:13:59;8.50;99.90
9509;DHT22;4792;50.088;8.122;2022-12-29T03:16:48;8.40;99.90
9509;DHT22;4792;50.088;8.122;2022-12-29T03:19:21;8.40;99.90
9509;DHT22;4792;50.088;8.122;2022-12-29T03:21:55;8.50;99.90
9509;DHT22;4792;50.088;8.122;2022-12-29T03:24:46;8.40;99.90
9509;DHT22;4792;50.088;8.122;2022-12-29T03:27:19;8.40;99.90
9509;DHT22;4792;50.088;8.122;2022-12-29T03:29:51;8.40;99.90
9509;DHT22;4792;50.088;8.122;2022-12-29T03:32:23;8.40;99.90
9509;DHT22;4792;50.088;8.122;2022-12-29T03:34:54;8.50;99.90
9509;DHT22;4792;50.088;8.122;2022-12-29T03:37:25;8.40;99.90
9509;DHT22;4792;50.088;8.122;2022-12-29T03:39:54;8.50;99.90
9509;DHT22;4792;50.088;8.122;2022-12-29T03:42:25;8.40;99.90
9509;DHT22;4792;50.088;8.122;2022-12-29T03:44:55;8.40;99.90
9509;DHT22;4792;50.088;8.122;2022-12-29T03:47:24;8.40;99.90
9509;DHT22;4792;50.088;8.122;2022-12-29T03:49:54;8.50;99.90
9509;DHT22;4792;50.088;8.122;2022-12-29T03:52:22;8.50;99.90
9509;DHT22;4792;50.088;8.122;2022-12-29T03:54:50;8.50;99.90
9509;DHT22;4792;50.088;8.122;2022-12-29T03:57:18;8.50;99.90
9509;DHT22;4792;50.088;8.122;2022-12-29T03:59:46;8.50;99.90
9509;DHT22;4792;50.088;8.122;2022-12-29T04:02:15;8.50;99.90
9509;DHT22;4792;50.088;8.122;2022-12-29T04:04:44;8.50;99.90
9509;DHT22;4792;50.088;8.122;2022-12-29T04:07:13;8.50;99.90
9509;DHT22;4792;50.088;8.122;2022-12-29T04:09:43;8.50;99.90
9509;DHT22;4792;50.088;8.122;2022-12-29T04:12:12;8.50;99.90
9509;DHT22;4792;50.088;8.122;2022-12-29T04:14:41;8.50;99.90
9509;DHT22;4792;50.088;8.122;2022-12-29T04:17:09;8.50;99.90
9509;DHT22;4792;50.088;8.122;2022-12-29T04:19:37;8.50;99.90
9509;DHT22;4792;50.088;8.122;2022-12-29T04:22:05;8.50;99.90
9509;DHT22;4792;50.088;8.122;2022-12-29T04:24:35;8.50;99.90
9509;DHT22;4792;50.088;8.122;2022-12-29T04:27:03;8.60;99.90
9509;DHT22;4792;50.088;8.122;2022-12-29T04:29:31;8.50;99.90
9509;DHT22;4792;50.088;8.122;2022-12-29T04:31:59;8.60;99.90
9509;DHT22;4792;50.088;8.122;2022-12-29T04:34:27;8.60;99.90
9509;DHT22;4792;50.088;8.122;2022-12-29T04:36:56;8.60;99.90
9509;DHT22;4792;50.088;8.122;2022-12-29T04:39:24;8.60;99.90
9509;DHT22;4792;50.088;8.122;2022-12-29T04:41:53;8.60;99.90
9509;DHT22;4792;50.088;8.122;2022-12-29T04:44:21;8.60;99.90
9509;DHT22;4792;50.088;8.122;2022-12-29T04:46:49;8.60;99.90
9509;DHT22;4792;50.088;8.122;2022-12-29T04:49:17;8.70;99.90
9509;DHT22;4792;50.088;8.122;2022-12-29T04:51:45;8.70;99.90
9509;DHT22;4792;50.088;8.122;2022-12-29T04:54:13;8.70;99.90
9509;DHT22;4792;50.088;8.122;2022-12-29T04:56:41;8.80;99.90
9509;DHT22;4792;50.088;8.122;2022-12-29T04:59:11;8.80;99.90
9509;DHT22;4792;50.088;8.122;2022-12-29T05:01:40;8.80;99.90
9509;DHT22;4792;50.088;8.122;2022-12-29T05:04:09;8.80;99.90
9509;DHT22;4792;50.088;8.122;2022-12-29T05:06:37;8.90;99.90
9509;DHT22;4792;50.088;8.122;2022-12-29T05:09:05;8.90;99.90
9509;DHT22;4792;50.088;8.122;2022-12-29T05:11:33;8.90;99.90
9509;DHT22;4792;50.088;8.122;2022-12-29T05:14:01;9.00;99.90
9509;DHT22;4792;50.088;8.122;2022-12-29T05:16:31;9.00;99.90
9509;DHT22;4792;50.088;8.122;2022-12-29T05:18:59;9.00;99.90
9509;DHT22;4792;50.088;8.122;2022-12-29T05:21:27;9.00;99.90
9509;DHT22;4792;50.088;8.122;2022-12-29T05:23:55;9.00;99.90
9509;DHT22;4792;50.088;8.122;2022-12-29T05:26:23;8.90;99.90
9509;DHT22;4792;50.088;8.122;2022-12-29T05:28:51;8.80;99.90
9509;DHT22;4792;50.088;8.122;2022-12-29T05:31:19;8.80;99.90
9509;DHT22;4792;50.088;8.122;2022-12-29T05:33:49;8.70;99.90
9509;DHT22;4792;50.088;8.122;2022-12-29T05:36:17;8.70;99.90
9509;DHT22;4792;50.088;8.122;2022-12-29T05:38:45;8.70;99.90
9509;DHT22;4792;50.088;8.122;2022-12-29T05:41:13;8.60;99.90
9509;DHT22;4792;50.088;8.122;2022-12-29T05:43:41;8.60;99.90
9509;DHT22;4792;50.088;8.122;2022-12-29T05:46:09;8.60;99.90
9509;DHT22;4792;50.088;8.122;2022-12-29T05:48:37;8.60;99.90
9509;DHT22;4792;50.088;8.122;2022-12-29T05:51:07;8.60;99.90
9509;DHT22;4792;50.088;8.122;2022-12-29T05:53:35;8.60;99.90
9509;DHT22;4792;50.088;8.122;2022-12-29T05:56:03;8.60;99.90
9509;DHT22;4792;50.088;8.122;2022-12-29T05:58:31;8.60;99.90
9509;DHT22;4792;50.088;8.122;2022-12-29T06:01:00;8.60;99.90
9509;DHT22;4792;50.088;8.122;2022-12-29T06:03:28;8.60;99.90
9509;DHT22;4792;50.088;8.122;2022-12-29T06:05:56;8.50;99.90
9509;DHT22;4792;50.088;8.122;2022-12-29T06:08:26;8.60;99.90
9509;DHT22;4792;50.088;8.122;2022-12-29T06:10:54;8.60;99.90
9509;DHT22;4792;50.088;8.122;2022-12-29T06:13:22;8.70;99.90
9509;DHT22;4792;50.088;8.122;2022-12-29T06:15:50;8.70;99.90
9509;DHT22;4792;50.088;8.122;2022-12-29T06:18:18;8.70;99.90
9509;DHT22;4792;50.088;8.122;2022-12-29T06:20:47;8.80;99.90
9509;DHT22;4792;50.088;8.122;2022-12-29T06:23:15;8.80;99.90
9509;DHT22;4792;50.088;8.122;2022-12-29T06:25:47;8.80;99.90
9509;DHT22;4792;50.088;8.122;2022-12-29T06:28:15;8.80;99.90
9509;DHT22;4792;50.088;8.122;2022-12-29T06:30:44;8.80;99.90
9509;DHT22;4792;50.088;8.122;2022-12-29T06:33:13;8.80;99.90
9509;DHT22;4792;50.088;8.122;2022-12-29T06:35:42;8.80;99.90
9509;DHT22;4792;50.088;8.122;2022-12-29T06:38:10;8.80;99.90
9509;DHT22;4792;50.088;8.122;2022-12-29T06:40:38;8.80;99.90
9509;DHT22;4792;50.088;8.122;2022-12-29T06:43:09;8.80;99.90
9509;DHT22;4792;50.088;8.122;2022-12-29T06:45:38;8.80;99.90
9509;DHT22;4792;50.088;8.122;2022-12-29T06:48:06;8.80;99.90
9509;DHT22;4792;50.088;8.122;2022-12-29T06:50:35;8.80;99.90
9509;DHT22;4792;50.088;8.122;2022-12-29T06:53:03;8.80;99.90
9509;DHT22;4792;50.088;8.122;2022-12-29T06:55:31;8.70;99.90
9509;DHT22;4792;50.088;8.122;2022-12-29T06:57:59;8.70;99.90
9509;DHT22;4792;50.088;8.122;2022-12-29T07:00:29;8.60;99.90
9509;DHT22;4792;50.088;8.122;2022-12-29T07:02:57;8.70;99.90
9509;DHT22;4792;50.088;8.122;2022-12-29T07:05:26;8.70;99.90
9509;DHT22;4792;50.088;8.122;2022-12-29T07:07:54;8.70;99.90
9509;DHT22;4792;50.088;8.122;2022-12-29T07:10:23;8.70;99.90
9509;DHT22;4792;50.088;8.122;2022-12-29T07:12:51;8.70;99.90
9509;DHT22;4792;50.088;8.122;2022-12-29T07:15:19;8.70;99.90
9509;DHT22;4792;50.088;8.122;2022-12-29T07:17:49;8.70;99.90
9509;DHT22;4792;50.088;8.122;2022-12-29T07:20:17;8.80;99.90
9509;DHT22;4792;50.088;8.122;2022-12-29T07:22:53;8.80;99.90
9509;DHT22;4792;50.088;8.122;2022-12-29T07:25:21;8.80;99.90
9509;DHT22;4792;50.088;8.122;2022-12-29T07:27:50;8.80;99.90
9509;DHT22;4792;50.088;8.122;2022-12-29T07:30:18;8.80;99.90
9509;DHT22;4792;50.088;8.122;2022-12-29T07:32:47;8.90;99.90
9509;DHT22;4792;50.088;8.122;2022-12-29T07:35:16;8.90;99.90
9509;DHT22;4792;50.088;8.122;2022-12-29T07:37:44;8.90;99.90
9509;DHT22;4792;50.088;8.122;2022-12-29T07:40:13;8.90;99.90
9509;DHT22;4792;50.088;8.122;2022-12-29T07:42:41;8.90;99.90
9509;DHT22;4792;50.088;8.122;2022-12-29T07:45:10;8.90;99.90
9509;DHT22;4792;50.088;8.122;2022-12-29T07:47:38;8.90;99.90
9509;DHT22;4792;50.088;8.122;2022-12-29T07:50:07;9.00;99.90
9509;DHT22;4792;50.088;8.122;2022-12-29T07:52:37;9.00;99.90
9509;DHT22;4792;50.088;8.122;2022-12-29T07:55:06;9.00;99.90
9509;DHT22;4792;50.088;8.122;2022-12-29T07:57:34;9.00;99.90
9509;DHT22;4792;50.088;8.122;2022-12-29T08:00:04;9.00;99.90
9509;DHT22;4792;50.088;8.122;2022-12-29T08:02:33;9.00;99.90
9509;DHT22;4792;50.088;8.122;2022-12-29T08:05:01;9.10;99.90
9509;DHT22;4792;50.088;8.122;2022-12-29T08:07:29;9.10;99.90
9509;DHT22;4792;50.088;8.122;2022-12-29T08:09:59;9.10;99.90
9509;DHT22;4792;50.088;8.122;2022-12-29T08:12:28;9.10;99.90
9509;DHT22;4792;50.088;8.122;2022-12-29T08:14:56;9.00;99.90
9509;DHT22;4792;50.088;8.122;2022-12-29T08:17:25;9.00;99.90
9509;DHT22;4792;50.088;8.122;2022-12-29T08:19:53;9.00;99.90
9509;DHT22;4792;50.088;8.122;2022-12-29T08:22:22;9.00;99.90
9509;DHT22;4792;50.088;8.122;2022-12-29T08:24:51;9.00;99.90
9509;DHT22;4792;50.088;8.122;2022-12-29T08:27:21;9.00;99.90
9509;DHT22;4792;50.088;8.122;2022-12-29T08:29:49;9.00;99.90
9509;DHT22;4792;50.088;8.122;2022-12-29T08:32:18;9.00;99.90
9509;DHT22;4792;50.088;8.122;2022-12-29T08:34:46;9.00;99.90
9509;DHT22;4792;50.088;8.122;2022-12-29T08:37:15;9.00;99.90
9509;DHT22;4792;50.088;8.122;2022-12-29T08:39:43;8.90;99.90
9509;DHT22;4792;50.088;8.122;2022-12-29T08:42:11;8.90;99.90
9509;DHT22;4792;50.088;8.122;2022-12-29T08:44:41;8.90;99.90
9509;DHT22;4792;50.088;8.122;2022-12-29T08:47:10;8.90;99.90
9509;DHT22;4792;50.088;8.122;2022-12-29T08:49:38;8.90;99.90
9509;DHT22;4792;50.088;8.122;2022-12-29T08:52:07;8.90;99.90
9509;DHT22;4792;50.088;8.122;2022-12-29T08:54:36;8.90;99.90
9509;DHT22;4792;50.088;8.122;2022-12-29T08:57:04;8.80;99.90
9509;DHT22;4792;50.088;8.122;2022-12-29T08:59:33;8.80;99.90
9509;DHT22;4792;50.088;8.122;2022-12-29T09:02:03;8.80;99.90
9509;DHT22;4792;50.088;8.122;2022-12-29T09:04:31;8.80;99.90
9509;DHT22;4792;50.088;8.122;2022-12-29T09:07:00;8.90;99.90
9509;DHT22;4792;50.088;8.122;2022-12-29T09:09:28;8.80;99.90
9509;DHT22;4792;50.088;8.122;2022-12-29T09:11:57;8.80;99.90
9509;DHT22;4792;50.088;8.122;2022-12-29T09:14:25;8.80;99.90
9509;DHT22;4792;50.088;8.122;2022-12-29T09:16:54;8.80;99.90
9509;DHT22;4792;50.088;8.122;2022-12-29T09:19:41;8.80;99.90
9509;DHT22;4792;50.088;8.122;2022-12-29T09:22:10;8.80;99.90
9509;DHT22;4792;50.088;8.122;2022-12-29T09:24:38;8.80;99.90
9509;DHT22;4792;50.088;8.122;2022-12-29T09:27:07;8.80;99.90
9509;DHT22;4792;50.088;8.122;2022-12-29T09:29:35;8.80;99.90
9509;DHT22;4792;50.088;8.122;2022-12-29T09:32:04;8.80;99.90
9509;DHT22;4792;50.088;8.122;2022-12-29T09:34:34;8.90;99.90
9509;DHT22;4792;50.088;8.122;2022-12-29T09:37:03;8.90;99.90
9509;DHT22;4792;50.088;8.122;2022-12-29T09:39:32;8.90;99.90
9509;DHT22;4792;50.088;8.122;2022-12-29T09:42:05;8.80;99.90
9509;DHT22;4792;50.088;8.122;2022-12-29T09:44:46;8.80;99.90
9509;DHT22;4792;50.088;8.122;2022-12-29T09:47:17;8.80;99.90
9509;DHT22;4792;50.088;8.122;2022-12-29T09:49:49;8.80;99.90
9509;DHT22;4792;50.088;8.122;2022-12-29T09:52:22;8.80;99.90
9509;DHT22;4792;50.088;8.122;2022-12-29T09:54:55;8.90;99.90
9509;DHT22;4792;50.088;8.122;2022-12-29T09:57:35;8.80;99.90
9509;DHT22;4792;50.088;8.122;2022-12-29T10:00:10;8.90;99.90
9509;DHT22;4792;50.088;8.122;2022-12-29T10:02:42;8.80;99.90
9509;DHT22;4792;50.088;8.122;2022-12-29T10:05:23;8.80;99.90
9509;DHT22;4792;50.088;8.122;2022-12-29T10:08:04;8.80;99.90
9509;DHT22;4792;50.088;8.122;2022-12-29T10:10:48;8.80;99.90
9509;DHT22;4792;50.088;8.122;2022-12-29T10:13:30;8.80;99.90
9509;DHT22;4792;50.088;8.122;2022-12-29T10:16:06;8.90;99.90
9509;DHT22;4792;50.088;8.122;2022-12-29T10:18:54;8.90;99.90
9509;DHT22;4792;50.088;8.122;2022-12-29T10:21:32;8.90;99.90
9509;DHT22;4792;50.088;8.122;2022-12-29T10:24:09;8.90;99.90
9509;DHT22;4792;50.088;8.122;2022-12-29T10:26:40;9.00;99.90
9509;DHT22;4792;50.088;8.122;2022-12-29T10:29:14;9.20;99.90
9509;DHT22;4792;50.088;8.122;2022-12-29T10:31:46;9.20;99.90
9509;DHT22;4792;50.088;8.122;2022-12-29T10:34:20;9.30;99.90
9509;DHT22;4792;50.088;8.122;2022-12-29T10:36:52;9.40;99.90
9509;DHT22;4792;50.088;8.122;2022-12-29T10:39:30;9.50;99.90
9509;DHT22;4792;50.088;8.122;2022-12-29T10:42:04;9.50;99.90
9509;DHT22;4792;50.088;8.122;2022-12-29T10:44:37;9.50;99.90
9509;DHT22;4792;50.088;8.122;2022-12-29T10:47:10;9.50;99.90
9509;DHT22;4792;50.088;8.122;2022-12-29T10:49:41;9.60;99.90
9509;DHT22;4792;50.088;8.122;2022-12-29T10:52:12;9.90;99.90
9509;DHT22;4792;50.088;8.122;2022-12-29T10:54:47;10.20;99.90
9509;DHT22;4792;50.088;8.122;2022-12-29T10:57:24;10.40;99.90
9509;DHT22;4792;50.088;8.122;2022-12-29T10:59:53;10.30;99.90
9509;DHT22;4792;50.088;8.122;2022-12-29T11:02:47;10.20;99.90
9509;DHT22;4792;50.088;8.122;2022-12-29T11:05:23;10.10;99.90
9509;DHT22;4792;50.088;8.122;2022-12-29T11:08:04;9.90;99.90
9509;DHT22;4792;50.088;8.122;2022-12-29T11:10:39;9.80;99.90
9509;DHT22;4792;50.088;8.122;2022-12-29T11:13:12;9.70;99.90
9509;DHT22;4792;50.088;8.122;2022-12-29T11:15:43;9.80;99.90
9509;DHT22;4792;50.088;8.122;2022-12-29T11:18:20;10.00;99.90
9509;DHT22;4792;50.088;8.122;2022-12-29T11:20:49;10.00;99.90
9509;DHT22;4792;50.088;8.122;2022-12-29T11:23:29;10.10;99.90
9509;DHT22;4792;50.088;8.122;2022-12-29T11:26:13;10.20;99.90
9509;DHT22;4792;50.088;8.122;2022-12-29T11:28:44;10.30;99.90
9509;DHT22;4792;50.088;8.122;2022-12-29T11:31:16;10.30;99.90
9509;DHT22;4792;50.088;8.122;2022-12-29T11:33:45;10.20;99.90
9509;DHT22;4792;50.088;8.122;2022-12-29T11:36:16;10.30;99.90
9509;DHT22;4792;50.088;8.122;2022-12-29T11:38:48;10.30;99.90
9509;DHT22;4792;50.088;8.122;2022-12-29T11:41:22;10.40;99.90
9509;DHT22;4792;50.088;8.122;2022-12-29T11:43:51;10.40;99.90
9509;DHT22;4792;50.088;8.122;2022-12-29T11:46:23;10.50;99.90
9509;DHT22;4792;50.088;8.122;2022-12-29T11:48:53;10.50;99.90
9509;DHT22;4792;50.088;8.122;2022-12-29T11:51:26;10.50;99.90
9509;DHT22;4792;50.088;8.122;2022-12-29T11:53:57;10.60;99.90
9509;DHT22;4792;50.088;8.122;2022-12-29T11:56:38;10.80;99.90
9509;DHT22;4792;50.088;8.122;2022-12-29T11:59:37;10.80;99.90
9509;DHT22;4792;50.088;8.122;2022-12-29T12:05:19;10.90;99.90
9509;DHT22;4792;50.088;8.122;2022-12-29T12:07:51;10.90;99.90
9509;DHT22;4792;50.088;8.122;2022-12-29T12:10:24;10.80;99.90
9509;DHT22;4792;50.088;8.122;2022-12-29T12:13:05;10.70;99.90
9509;DHT22;4792;50.088;8.122;2022-12-29T12:15:39;10.60;99.90
9509;DHT22;4792;50.088;8.122;2022-12-29T12:18:19;10.60;99.90
9509;DHT22;4792;50.088;8.122;2022-12-29T12:20:54;10.70;99.90
9509;DHT22;4792;50.088;8.122;2022-12-29T12:23:31;10.70;99.90
9509;DHT22;4792;50.088;8.122;2022-12-29T12:26:11;10.70;99.90
9509;DHT22;4792;50.088;8.122;2022-12-29T12:28:49;10.70;99.90
9509;DHT22;4792;50.088;8.122;2022-12-29T12:31:33;10.70;99.90
9509;DHT22;4792;50.088;8.122;2022-12-29T12:34:13;10.80;99.90
9509;DHT22;4792;50.088;8.122;2022-12-29T12:39:44;10.90;99.90
9509;DHT22;4792;50.088;8.122;2022-12-29T12:42:26;10.80;99.90
9509;DHT22;4792;50.088;8.122;2022-12-29T12:45:17;10.80;99.90
9509;DHT22;4792;50.088;8.122;2022-12-29T12:48:01;10.70;99.90
9509;DHT22;4792;50.088;8.122;2022-12-29T12:50:45;10.70;99.90
9509;DHT22;4792;50.088;8.122;2022-12-29T12:56:33;10.70;99.90
9509;DHT22;4792;50.088;8.122;2022-12-29T12:59:09;10.70;99.90
9509;DHT22;4792;50.088;8.122;2022-12-29T13:01:51;10.70;99.90
9509;DHT22;4792;50.088;8.122;2022-12-29T13:04:48;10.60;99.90
9509;DHT22;4792;50.088;8.122;2022-12-29T13:07:27;10.60;99.90
9509;DHT22;4792;50.088;8.122;2022-12-29T13:10:22;10.50;99.90
9509;DHT22;4792;50.088;8.122;2022-12-29T13:13:00;10.40;99.90
9509;DHT22;4792;50.088;8.122;2022-12-29T13:15:42;10.40;99.90
9509;DHT22;4792;50.088;8.122;2022-12-29T13:18:20;10.50;99.90
9509;DHT22;4792;50.088;8.122;2022-12-29T13:20:53;10.50;99.90
9509;DHT22;4792;50.088;8.122;2022-12-29T13:23:26;10.60;99.90
9509;DHT22;4792;50.088;8.122;2022-12-29T13:25:59;10.60;99.90
9509;DHT22;4792;50.088;8.122;2022-12-29T13:28:34;10.50;99.90
9509;DHT22;4792;50.088;8.122;2022-12-29T13:31:09;10.50;99.90
9509;DHT22;4792;50.088;8.122;2022-12-29T13:33:47;10.50;99.90
9509;DHT22;4792;50.088;8.122;2022-12-29T13:36:22;10.50;99.90
9509;DHT22;4792;50.088;8.122;2022-12-29T13:38:58;10.40;99.90
9509;DHT22;4792;50.088;8.122;2022-12-29T13:41:32;10.50;99.90
9509;DHT22;4792;50.088;8.122;2022-12-29T13:44:03;10.50;99.90
9509;DHT22;4792;50.088;8.122;2022-12-29T13:46:36;10.50;99.90
9509;DHT22;4792;50.088;8.122;2022-12-29T13:49:11;10.40;99.90
9509;DHT22;4792;50.088;8.122;2022-12-29T13:51:44;10.40;99.90
9509;DHT22;4792;50.088;8.122;2022-12-29T13:54:24;10.40;99.90
9509;DHT22;4792;50.088;8.122;2022-12-29T13:56:59;10.70;99.90
9509;DHT22;4792;50.088;8.122;2022-12-29T13:59:38;11.30;99.90
9509;DHT22;4792;50.088;8.122;2022-12-29T14:02:17;11.50;99.90
9509;DHT22;4792;50.088;8.122;2022-12-29T14:05:00;11.30;99.90
9509;DHT22;4792;50.088;8.122;2022-12-29T14:07:29;11.10;99.90
9509;DHT22;4792;50.088;8.122;2022-12-29T14:10:04;11.00;99.90
9509;DHT22;4792;50.088;8.122;2022-12-29T14:12:36;10.80;99.90
9509;DHT22;4792;50.088;8.122;2022-12-29T14:15:19;10.60;99.90
9509;DHT22;4792;50.088;8.122;2022-12-29T14:18:10;10.50;99.90
9509;DHT22;4792;50.088;8.122;2022-12-29T14:20:49;10.50;99.90
9509;DHT22;4792;50.088;8.122;2022-12-29T14:23:29;10.50;99.90
9509;DHT22;4792;50.088;8.122;2022-12-29T14:26:15;10.40;99.90
9509;DHT22;4792;50.088;8.122;2022-12-29T14:28:45;10.40;99.90
9509;DHT22;4792;50.088;8.122;2022-12-29T14:31:34;10.40;99.90
9509;DHT22;4792;50.088;8.122;2022-12-29T14:34:36;10.30;99.90
9509;DHT22;4792;50.088;8.122;2022-12-29T14:37:23;10.30;99.90
9509;DHT22;4792;50.088;8.122;2022-12-29T14:40:04;10.30;99.90
9509;DHT22;4792;50.088;8.122;2022-12-29T14:42:33;10.40;99.90
9509;DHT22;4792;50.088;8.122;2022-12-29T14:45:06;10.70;99.90
9509;DHT22;4792;50.088;8.122;2022-12-29T14:47:37;10.80;99.90
9509;DHT22;4792;50.088;8.122;2022-12-29T14:50:12;10.70;99.90
9509;DHT22;4792;50.088;8.122;2022-12-29T14:52:46;10.80;99.90
9509;DHT22;4792;50.088;8.122;2022-12-29T14:55:38;10.70;99.90
9509;DHT22;4792;50.088;8.122;2022-12-29T14:58:15;10.70;99.90
9509;DHT22;4792;50.088;8.122;2022-12-29T15:00:47;10.60;99.90
9509;DHT22;4792;50.088;8.122;2022-12-29T15:03:19;10.40;99.90
9509;DHT22;4792;50.088;8.122;2022-12-29T15:05:51;10.20;99.90
9509;DHT22;4792;50.088;8.122;2022-12-29T15:08:25;10.10;99.90
9509;DHT22;4792;50.088;8.122;2022-12-29T15:11:00;10.00;99.90
9509;DHT22;4792;50.088;8.122;2022-12-29T15:13:34;10.00;99.90
9509;DHT22;4792;50.088;8.122;2022-12-29T15:16:04;10.00;99.90
9509;DHT22;4792;50.088;8.122;2022-12-29T15:18:33;9.80;99.90
9509;DHT22;4792;50.088;8.122;2022-12-29T15:21:04;9.80;99.90
9509;DHT22;4792;50.088;8.122;2022-12-29T15:23:35;9.70;99.90
9509;DHT22;4792;50.088;8.122;2022-12-29T15:26:06;9.70;99.90
9509;DHT22;4792;50.088;8.122;2022-12-29T15:28:39;9.70;99.90
9509;DHT22;4792;50.088;8.122;2022-12-29T15:31:12;9.60;99.90
9509;DHT22;4792;50.088;8.122;2022-12-29T15:33:42;9.60;99.90
9509;DHT22;4792;50.088;8.122;2022-12-29T15:36:13;9.60;99.90
9509;DHT22;4792;50.088;8.122;2022-12-29T15:38:42;9.50;99.90
9509;DHT22;4792;50.088;8.122;2022-12-29T15:41:24;9.60;99.90
9509;DHT22;4792;50.088;8.122;2022-12-29T15:44:06;9.50;99.90
9509;DHT22;4792;50.088;8.122;2022-12-29T15:46:37;9.50;99.90
9509;DHT22;4792;50.088;8.122;2022-12-29T15:49:06;9.40;99.90
9509;DHT22;4792;50.088;8.122;2022-12-29T15:51:37;9.40;99.90
9509;DHT22;4792;50.088;8.122;2022-12-29T15:54:15;9.30;99.90
9509;DHT22;4792;50.088;8.122;2022-12-29T15:56:44;9.30;99.90
9509;DHT22;4792;50.088;8.122;2022-12-29T15:59:23;9.20;99.90
9509;DHT22;4792;50.088;8.122;2022-12-29T16:01:52;9.20;99.90
9509;DHT22;4792;50.088;8.122;2022-12-29T16:04:22;9.20;99.90
9509;DHT22;4792;50.088;8.122;2022-12-29T16:06:55;9.20;99.90
9509;DHT22;4792;50.088;8.122;2022-12-29T16:09:32;9.20;99.90
9509;DHT22;4792;50.088;8.122;2022-12-29T16:12:04;9.20;99.90
9509;DHT22;4792;50.088;8.122;2022-12-29T16:14:38;9.10;99.90
9509;DHT22;4792;50.088;8.122;2022-12-29T16:17:12;9.10;99.90
9509;DHT22;4792;50.088;8.122;2022-12-29T16:19:48;9.00;99.90
9509;DHT22;4792;50.088;8.122;2022-12-29T16:22:22;9.00;99.90
9509;DHT22;4792;50.088;8.122;2022-12-29T16:24:55;9.00;99.90
9509;DHT22;4792;50.088;8.122;2022-12-29T16:27:36;9.10;99.90
9509;DHT22;4792;50.088;8.122;2022-12-29T16:30:12;9.00;99.90
9509;DHT22;4792;50.088;8.122;2022-12-29T16:32:45;9.10;99.90
9509;DHT22;4792;50.088;8.122;2022-12-29T16:35:18;9.00;99.90
9509;DHT22;4792;50.088;8.122;2022-12-29T16:37:47;9.00;99.90
9509;DHT22;4792;50.088;8.122;2022-12-29T16:40:29;9.00;99.90
9509;DHT22;4792;50.088;8.122;2022-12-29T16:42:59;9.00;99.90
9509;DHT22;4792;50.088;8.122;2022-12-29T16:48:35;9.00;99.90
9509;DHT22;4792;50.088;8.122;2022-12-29T16:51:06;9.00;99.90
9509;DHT22;4792;50.088;8.122;2022-12-29T16:53:40;9.00;99.90
9509;DHT22;4792;50.088;8.122;2022-12-29T16:56:15;8.90;99.90
9509;DHT22;4792;50.088;8.122;2022-12-29T16:58:46;8.80;99.90
9509;DHT22;4792;50.088;8.122;2022-12-29T17:01:15;8.80;99.90
9509;DHT22;4792;50.088;8.122;2022-12-29T17:03:49;8.70;99.90
9509;DHT22;4792;50.088;8.122;2022-12-29T17:06:21;8.60;99.90
9509;DHT22;4792;50.088;8.122;2022-12-29T17:08:50;8.50;99.90